createdAt,value
2018-08-12T00:00:44.240Z,14.55
2018-08-12T00:03:12.524Z,14.62
2018-08-12T00:05:40.809Z,14.67
2018-08-12T00:08:09.080Z,14.79
2018-08-12T00:10:37.389Z,14.69
2018-08-12T00:13:05.653Z,14.64
2018-08-12T00:15:33.952Z,14.49
2018-08-12T00:18:02.254Z,14.63
2018-08-12T00:20:30.528Z,14.73
2018-08-12T00:22:58.841Z,14.83
2018-08-12T00:25:27.113Z,14.85
2018-08-12T00:27:55.398Z,14.90
2018-08-12T00:30:23.689Z,14.92
2018-08-12T00:32:51.969Z,14.94
2018-08-12T00:35:20.385Z,14.93
2018-08-12T00:37:48.733Z,15.08
2018-08-12T00:40:17.665Z,15.11
2018-08-12T00:42:46.597Z,15.13
2018-08-12T00:45:16.884Z,15.01
2018-08-12T00:47:45.589Z,14.89
2018-08-12T00:50:14.666Z,14.95
2018-08-12T00:52:42.989Z,14.91
2018-08-12T00:55:13.233Z,14.96
2018-08-12T00:57:42.284Z,15.05
2018-08-12T01:00:15.774Z,15.15
2018-08-12T01:02:44.124Z,15.19
2018-08-12T01:05:14.384Z,14.99
2018-08-12T01:07:44.215Z,14.92
2018-08-12T01:10:13.902Z,14.94
2018-08-12T01:12:43.261Z,15.02
2018-08-12T01:15:13.765Z,15.08
2018-08-12T01:17:42.330Z,15.10
2018-08-12T01:20:14.489Z,15.03
2018-08-12T01:29:48.525Z,15.23
2018-08-12T01:32:16.782Z,15.19
2018-08-12T01:34:45.079Z,15.24
2018-08-12T01:37:13.369Z,15.26
2018-08-12T01:39:42.689Z,15.28
2018-08-12T01:42:10.930Z,15.20
2018-08-12T01:44:39.213Z,15.23
2018-08-12T01:47:07.565Z,15.19
2018-08-12T01:49:35.868Z,15.16
2018-08-12T01:52:04.144Z,15.17
2018-08-12T01:54:32.473Z,15.08
2018-08-12T01:57:00.728Z,15.20
2018-08-12T01:59:30.000Z,15.30
2018-08-12T02:01:58.289Z,15.28
2018-08-12T02:04:26.549Z,15.17
2018-08-12T02:06:54.853Z,15.21
2018-08-12T02:09:23.221Z,14.94
2018-08-12T02:11:51.528Z,14.92
2018-08-12T02:14:19.808Z,14.98
2018-08-12T02:16:48.176Z,15.00
2018-08-12T02:19:16.428Z,15.00
2018-08-12T02:21:44.725Z,15.06
2018-08-12T02:24:13.002Z,14.95
2018-08-12T02:26:41.388Z,15.00
2018-08-12T02:29:09.649Z,14.94
2018-08-12T02:31:37.929Z,14.83
2018-08-12T02:34:06.185Z,14.91
2018-08-12T02:36:34.501Z,14.74
2018-08-12T02:39:02.822Z,14.79
2018-08-12T02:41:31.149Z,14.96
2018-08-12T02:43:59.441Z,14.90
2018-08-12T02:46:27.805Z,14.71
2018-08-12T02:48:56.123Z,14.85
2018-08-12T02:51:24.401Z,14.78
2018-08-12T02:53:52.696Z,14.93
2018-08-12T02:56:20.989Z,14.85
2018-08-12T02:58:49.311Z,14.71
2018-08-12T03:01:17.570Z,14.85
2018-08-12T03:03:46.937Z,14.77
2018-08-12T03:06:15.226Z,14.81
2018-08-12T03:08:43.569Z,14.76
2018-08-12T03:11:11.841Z,14.71
2018-08-12T03:13:40.161Z,14.58
2018-08-12T03:16:08.446Z,14.65
2018-08-12T03:18:36.749Z,14.74
2018-08-12T03:21:05.053Z,14.77
2018-08-12T03:23:33.399Z,14.69
2018-08-12T03:26:01.745Z,14.74
2018-08-12T03:28:30.033Z,14.76
2018-08-12T03:30:58.373Z,14.78
2018-08-12T03:33:27.724Z,14.66
2018-08-12T03:35:57.061Z,14.72
2018-08-12T03:38:25.384Z,14.80
2018-08-12T03:40:53.701Z,14.77
2018-08-12T03:43:21.965Z,14.65
2018-08-12T03:45:50.301Z,14.64
2018-08-12T03:48:20.390Z,14.75
2018-08-12T03:50:48.733Z,14.74
2018-08-12T03:53:16.984Z,14.69
2018-08-12T03:55:45.273Z,14.67
2018-08-12T03:58:13.607Z,14.65
2018-08-12T04:00:42.929Z,14.85
2018-08-12T04:03:11.305Z,14.60
2018-08-12T04:05:39.605Z,14.49
2018-08-12T04:08:07.901Z,14.57
2018-08-12T04:10:37.297Z,14.56
2018-08-12T04:13:05.640Z,14.55
2018-08-12T04:15:33.952Z,14.67
2018-08-12T04:18:02.223Z,14.75
2018-08-12T04:20:30.504Z,14.66
2018-08-12T04:22:58.872Z,14.66
2018-08-12T04:25:28.164Z,14.74
2018-08-12T04:27:56.445Z,14.76
2018-08-12T04:30:24.789Z,14.81
2018-08-12T04:32:53.073Z,14.80
2018-08-12T04:35:21.392Z,14.94
2018-08-12T04:37:49.738Z,15.00
2018-08-12T04:40:18.029Z,14.84
2018-08-12T04:42:46.349Z,15.03
2018-08-12T04:45:14.618Z,15.10
2018-08-12T04:47:42.960Z,15.31
2018-08-12T04:50:11.302Z,15.36
2018-08-12T04:52:39.593Z,15.24
2018-08-12T04:55:08.537Z,15.14
2018-08-12T04:57:38.058Z,15.11
2018-08-12T05:00:07.031Z,15.42
2018-08-12T05:02:36.320Z,15.44
2018-08-12T05:05:04.961Z,15.35
2018-08-12T05:07:33.273Z,15.34
2018-08-12T05:10:01.607Z,15.68
2018-08-12T05:12:31.973Z,15.81
2018-08-12T05:15:00.240Z,15.77
2018-08-12T05:17:28.540Z,15.68
2018-08-12T05:19:56.808Z,15.65
2018-08-12T05:22:25.191Z,15.69
2018-08-12T05:24:53.545Z,15.98
2018-08-12T05:27:21.912Z,15.89
2018-08-12T05:29:50.173Z,15.79
2018-08-12T05:32:18.445Z,15.72
2018-08-12T05:34:47.757Z,15.71
2018-08-12T05:40:08.125Z,15.66
2018-08-12T05:42:36.513Z,15.60
2018-08-12T05:45:06.549Z,15.73
2018-08-12T05:47:34.793Z,15.84
2018-08-12T05:50:03.149Z,15.74
2018-08-12T05:52:31.393Z,15.91
2018-08-12T05:54:59.661Z,15.71
2018-08-12T05:57:29.045Z,15.60
2018-08-12T05:59:57.319Z,15.68
2018-08-12T06:02:26.593Z,15.92
2018-08-12T06:04:55.128Z,15.66
2018-08-12T06:07:23.385Z,16.04
2018-08-12T06:09:51.720Z,16.32
2018-08-12T06:12:19.965Z,16.16
2018-08-12T06:14:48.260Z,16.38
2018-08-12T06:17:16.542Z,16.45
2018-08-12T06:19:44.837Z,16.39
2018-08-12T06:22:13.086Z,16.39
2018-08-12T06:24:41.353Z,16.30
2018-08-12T06:27:09.597Z,16.22
2018-08-12T06:29:37.977Z,16.42
2018-08-12T06:32:06.288Z,16.16
2018-08-12T06:34:34.526Z,16.27
2018-08-12T06:37:02.844Z,16.65
2018-08-12T06:39:31.136Z,17.07
2018-08-12T06:42:01.421Z,17.25
2018-08-12T06:44:31.705Z,16.80
2018-08-12T06:47:01.041Z,17.00
2018-08-12T06:49:29.385Z,16.60
2018-08-12T06:51:57.737Z,16.84
2018-08-12T06:54:27.312Z,16.93
2018-08-12T06:56:55.605Z,16.32
2018-08-12T06:59:23.877Z,16.67
2018-08-12T07:01:53.365Z,16.49
2018-08-12T07:04:21.672Z,16.83
2018-08-12T07:06:49.973Z,17.26
2018-08-12T07:09:18.260Z,17.38
2018-08-12T07:11:46.566Z,17.77
2018-08-12T07:14:14.877Z,18.28
2018-08-12T07:16:44.257Z,18.45
2018-08-12T07:19:12.513Z,18.10
2018-08-12T07:21:40.789Z,17.87
2018-08-12T07:24:09.076Z,17.69
2018-08-12T07:26:37.341Z,17.74
2018-08-12T07:29:05.665Z,18.17
2018-08-12T07:31:35.023Z,18.46
2018-08-12T07:34:03.429Z,18.81
2018-08-12T07:36:31.753Z,18.59
2018-08-12T07:39:00.094Z,19.23
2018-08-12T07:41:28.383Z,19.10
2018-08-12T07:43:56.729Z,18.37
2018-08-12T07:46:24.993Z,18.55
2018-08-12T07:48:53.445Z,18.72
2018-08-12T07:51:21.665Z,18.43
2018-08-12T07:53:49.988Z,18.33
2018-08-12T07:56:18.269Z,18.52
2018-08-12T07:58:46.584Z,18.92
2018-08-12T08:01:15.881Z,19.01
2018-08-12T08:03:44.180Z,19.14
2018-08-12T08:06:12.454Z,19.52
2018-08-12T08:08:40.783Z,19.97
2018-08-12T08:11:10.114Z,19.95
2018-08-12T08:13:38.436Z,20.32
2018-08-12T08:16:07.261Z,20.08
2018-08-12T08:18:35.605Z,19.25
2018-08-12T08:21:03.926Z,19.49
2018-08-12T08:23:32.216Z,19.85
2018-08-12T08:26:00.543Z,19.30
2018-08-12T08:28:28.873Z,19.56
2018-08-12T08:30:57.258Z,19.34
2018-08-12T08:33:25.569Z,19.35
2018-08-12T08:35:53.920Z,19.07
2018-08-12T08:38:22.240Z,19.48
2018-08-12T08:40:50.541Z,19.90
2018-08-12T08:43:20.884Z,19.94
2018-08-12T08:45:50.205Z,20.33
2018-08-12T08:48:18.509Z,20.21
2018-08-12T08:50:46.857Z,20.05
2018-08-12T08:53:15.105Z,19.97
2018-08-12T08:55:43.458Z,19.93
2018-08-12T08:58:11.672Z,19.71
2018-08-12T09:00:39.973Z,19.87
2018-08-12T09:03:08.266Z,19.83
2018-08-12T09:05:37.637Z,19.99
2018-08-12T09:08:06.377Z,20.59
2018-08-12T09:10:34.521Z,20.30
2018-08-12T09:13:02.841Z,20.37
2018-08-12T09:15:32.237Z,20.27
2018-08-12T09:18:00.505Z,20.32
2018-08-12T09:20:30.899Z,20.29
2018-08-12T09:22:59.209Z,20.77
2018-08-12T09:25:27.518Z,21.28
2018-08-12T09:27:57.853Z,21.27
2018-08-12T09:30:26.153Z,21.25
2018-08-12T09:32:54.467Z,21.62
2018-08-12T09:35:27.830Z,21.43
2018-08-12T09:37:56.185Z,21.06
2018-08-12T09:40:24.447Z,20.84
2018-08-12T09:42:52.805Z,20.88
2018-08-12T09:45:21.740Z,21.76
2018-08-12T09:47:51.069Z,21.61
2018-08-12T09:50:20.848Z,21.69
2018-08-12T09:52:50.286Z,21.29
2018-08-12T09:55:19.150Z,21.40
2018-08-12T09:57:49.469Z,20.98
2018-08-12T10:00:23.659Z,21.28
2018-08-12T10:02:53.741Z,22.05
2018-08-12T10:05:22.025Z,21.80
2018-08-12T10:07:51.414Z,21.77
2018-08-12T10:10:19.705Z,21.94
2018-08-12T10:12:48.117Z,21.55
2018-08-12T10:15:18.006Z,21.81
2018-08-12T10:17:51.329Z,22.46
2018-08-12T10:20:19.611Z,22.81
2018-08-12T10:22:48.508Z,23.11
2018-08-12T10:25:17.852Z,23.06
2018-08-12T10:27:46.517Z,22.62
2018-08-12T10:30:15.740Z,22.54
2018-08-12T10:32:44.093Z,22.36
2018-08-12T10:35:13.722Z,22.70
2018-08-12T10:37:42.600Z,22.41
2018-08-12T10:40:14.833Z,22.61
2018-08-12T10:42:43.445Z,22.48
2018-08-12T10:45:12.781Z,22.20
2018-08-12T10:47:41.537Z,22.19
2018-08-12T10:50:12.533Z,22.47
2018-08-12T10:52:43.249Z,22.98
2018-08-12T10:55:12.571Z,24.11
2018-08-12T10:57:40.877Z,22.91
2018-08-12T11:00:15.348Z,22.12
2018-08-12T11:02:44.240Z,22.67
2018-08-12T11:05:13.353Z,22.37
2018-08-12T11:07:44.381Z,22.20
2018-08-12T11:10:13.180Z,22.57
2018-08-12T11:12:42.833Z,22.21
2018-08-12T11:15:11.070Z,22.05
2018-08-12T11:17:40.210Z,21.67
2018-08-12T11:20:10.050Z,22.06
2018-08-12T11:22:38.390Z,22.38
2018-08-12T11:25:09.467Z,22.38
2018-08-12T11:27:37.826Z,21.94
2018-08-12T11:30:10.153Z,21.63
2018-08-12T11:32:38.521Z,21.77
2018-08-12T11:35:08.145Z,21.53
2018-08-12T11:37:36.881Z,21.81
2018-08-12T11:40:07.497Z,22.10
2018-08-12T11:42:35.923Z,22.07
2018-08-12T11:45:05.861Z,22.04
2018-08-12T11:47:34.276Z,22.25
2018-08-12T11:50:02.545Z,22.43
2018-08-12T11:52:30.801Z,22.15
2018-08-12T11:55:00.086Z,21.59
2018-08-12T11:57:28.400Z,22.42
2018-08-12T11:59:56.774Z,21.88
2018-08-12T12:02:25.065Z,21.08
2018-08-12T12:04:54.441Z,21.04
2018-08-12T12:07:27.245Z,20.63
2018-08-12T12:09:55.488Z,20.77
2018-08-12T12:12:23.781Z,20.74
2018-08-12T12:14:52.045Z,20.50
2018-08-12T12:17:20.361Z,20.18
2018-08-12T12:19:48.617Z,20.08
2018-08-12T12:22:16.913Z,20.31
2018-08-12T12:24:45.250Z,19.98
2018-08-12T12:27:13.629Z,19.76
2018-08-12T12:29:41.927Z,20.21
2018-08-12T12:32:11.197Z,20.02
2018-08-12T12:34:39.582Z,20.25
2018-08-12T12:37:07.839Z,20.41
2018-08-12T12:39:36.165Z,20.09
2018-08-12T12:42:04.474Z,20.28
2018-08-12T12:44:32.935Z,20.05
2018-08-12T12:47:01.209Z,20.22
2018-08-12T12:49:29.561Z,19.97
2018-08-12T12:51:59.870Z,20.18
2018-08-12T12:54:28.170Z,19.81
2018-08-12T12:56:56.468Z,19.61
2018-08-12T12:59:25.837Z,19.61
2018-08-12T13:01:54.106Z,19.34
2018-08-12T13:04:22.553Z,19.63
2018-08-12T13:06:50.816Z,19.71
2018-08-12T13:09:19.129Z,20.29
2018-08-12T13:11:47.404Z,20.87
2018-08-12T13:14:16.725Z,20.75
2018-08-12T13:16:44.984Z,20.56
2018-08-12T13:19:13.351Z,20.97
2018-08-12T13:21:41.623Z,21.12
2018-08-12T13:24:10.876Z,21.39
2018-08-12T13:26:39.201Z,20.76
2018-08-12T13:29:07.617Z,20.71
2018-08-12T13:31:35.929Z,20.83
2018-08-12T13:34:04.230Z,20.28
2018-08-12T13:36:33.574Z,20.57
2018-08-12T13:39:01.861Z,20.81
2018-08-12T13:41:30.141Z,21.01
2018-08-12T13:43:58.437Z,21.14
2018-08-12T13:46:26.960Z,21.22
2018-08-12T13:48:55.265Z,20.83
2018-08-12T13:51:23.569Z,20.59
2018-08-12T13:53:51.865Z,20.66
2018-08-12T13:56:20.145Z,20.82
2018-08-12T13:58:48.465Z,20.65
2018-08-12T14:01:16.756Z,20.88
2018-08-12T14:03:45.027Z,20.25
2018-08-12T14:06:13.344Z,20.14
2018-08-12T14:08:41.653Z,19.52
2018-08-12T14:11:10.042Z,19.76
2018-08-12T14:13:38.393Z,19.64
2018-08-12T14:16:06.865Z,19.56
2018-08-12T14:18:35.141Z,19.76
2018-08-12T14:21:03.480Z,19.65
2018-08-12T14:23:31.777Z,19.05
2018-08-12T14:26:00.122Z,19.09
2018-08-12T14:28:28.505Z,19.09
2018-08-12T14:30:56.797Z,18.83
2018-08-12T14:33:26.112Z,18.78
2018-08-12T14:35:54.416Z,18.93
2018-08-12T14:38:22.804Z,19.11
2018-08-12T14:40:52.121Z,19.20
2018-08-12T14:43:21.503Z,19.51
2018-08-12T14:45:49.805Z,19.70
2018-08-12T14:48:19.338Z,19.78
2018-08-12T14:50:47.677Z,19.99
2018-08-12T14:53:15.990Z,20.12
2018-08-12T14:55:44.300Z,20.23
2018-08-12T14:58:12.605Z,20.50
2018-08-12T15:00:40.881Z,20.69
2018-08-12T15:03:09.196Z,20.41
2018-08-12T15:05:37.553Z,20.50
2018-08-12T15:08:05.857Z,20.28
2018-08-12T15:10:34.132Z,20.52
2018-08-12T15:13:02.477Z,20.54
2018-08-12T15:15:30.774Z,20.88
2018-08-12T15:18:04.212Z,21.25
2018-08-12T15:20:34.497Z,21.36
2018-08-12T15:23:02.813Z,21.70
2018-08-12T15:25:31.141Z,21.98
2018-08-12T15:27:59.449Z,22.03
2018-08-12T15:30:27.836Z,22.10
2018-08-12T15:32:56.299Z,22.19
2018-08-12T15:35:24.583Z,22.07
2018-08-12T15:37:53.873Z,21.77
2018-08-12T15:40:22.172Z,21.69
2018-08-12T15:42:51.497Z,21.79
2018-08-12T15:45:19.793Z,21.37
2018-08-12T15:47:48.358Z,21.58
2018-08-12T15:50:16.720Z,21.65
2018-08-12T15:52:46.213Z,21.83
2018-08-12T15:55:14.860Z,21.82
2018-08-12T15:57:43.216Z,21.92
2018-08-12T16:00:19.916Z,21.81
2018-08-12T16:02:48.569Z,22.04
2018-08-12T16:05:17.913Z,22.23
2018-08-12T16:07:48.193Z,22.43
2018-08-12T16:10:18.686Z,22.45
2018-08-12T16:12:49.154Z,22.19
2018-08-12T16:15:18.524Z,22.25
2018-08-12T16:18:49.962Z,22.17
2018-08-12T16:21:18.249Z,21.89
2018-08-12T16:23:46.609Z,22.09
2018-08-12T16:26:14.891Z,22.11
2018-08-12T16:28:43.216Z,22.06
2018-08-12T16:32:38.030Z,22.21
2018-08-12T16:35:07.212Z,22.05
2018-08-12T16:37:35.568Z,22.10
2018-08-12T16:40:04.162Z,21.81
2018-08-12T16:42:33.572Z,21.69
2018-08-12T16:45:01.930Z,21.73
2018-08-12T16:47:30.357Z,21.88
2018-08-12T16:49:59.610Z,22.01
2018-08-12T16:52:28.953Z,22.17
2018-08-12T16:54:57.206Z,22.14
2018-08-12T16:57:25.529Z,22.11
2018-08-12T16:59:53.788Z,22.11
2018-08-12T17:02:22.041Z,22.21
2018-08-12T17:04:50.332Z,22.25
2018-08-12T17:07:18.585Z,22.21
2018-08-12T17:09:47.908Z,22.24
2018-08-12T17:12:16.165Z,22.17
2018-08-12T17:14:44.513Z,22.24
2018-08-12T17:17:13.924Z,22.00
2018-08-12T17:19:42.233Z,22.13
2018-08-12T17:22:10.586Z,22.07
2018-08-12T17:24:38.865Z,21.79
2018-08-12T17:27:07.133Z,21.82
2018-08-12T17:29:35.432Z,21.89
2018-08-12T17:32:03.926Z,21.85
2018-08-12T17:34:33.217Z,21.86
2018-08-12T17:37:02.757Z,21.78
2018-08-12T17:39:31.100Z,21.74
2018-08-12T17:41:59.355Z,21.77
2018-08-12T17:44:27.653Z,21.79
2018-08-12T17:46:56.034Z,21.83
2018-08-12T17:49:24.477Z,21.77
2018-08-12T17:51:52.742Z,21.62
2018-08-12T17:54:22.168Z,21.68
2018-08-12T17:56:51.561Z,21.53
2018-08-12T17:59:19.841Z,21.42
2018-08-12T18:01:48.156Z,21.49
2018-08-12T18:04:16.442Z,21.40
2018-08-12T18:06:45.780Z,21.32
2018-08-12T18:09:14.072Z,21.41
2018-08-12T18:11:43.494Z,21.38
2018-08-12T18:14:11.773Z,21.41
2018-08-12T18:16:40.085Z,21.42
2018-08-12T18:19:08.369Z,21.34
2018-08-12T18:21:36.642Z,21.37
2018-08-12T18:24:04.902Z,21.35
2018-08-12T18:26:33.208Z,21.30
2018-08-12T18:29:01.519Z,21.16
2018-08-12T18:31:29.794Z,21.27
2018-08-12T18:33:58.057Z,21.20
2018-08-12T18:36:26.361Z,21.03
2018-08-12T18:38:54.649Z,21.10
2018-08-12T18:41:22.917Z,21.11
2018-08-12T18:43:51.161Z,21.09
2018-08-12T18:46:19.469Z,21.03
2018-08-12T18:48:47.742Z,20.96
2018-08-12T18:51:18.129Z,20.83
2018-08-12T18:53:46.426Z,20.87
2018-08-12T18:56:14.797Z,20.86
2018-08-12T18:58:43.154Z,20.70
2018-08-12T19:01:11.516Z,20.70
2018-08-12T19:03:40.830Z,20.66
2018-08-12T19:06:09.080Z,20.55
2018-08-12T19:08:37.409Z,20.48
2018-08-12T19:11:05.669Z,20.35
2018-08-12T19:13:34.977Z,20.35
2018-08-12T19:16:03.272Z,20.31
2018-08-12T19:18:31.685Z,20.29
2018-08-12T19:20:59.965Z,20.22
2018-08-12T19:23:28.240Z,20.23
2018-08-12T19:25:56.518Z,20.19
2018-08-12T19:28:24.852Z,20.14
2018-08-12T19:30:53.112Z,20.10
2018-08-12T19:33:22.938Z,20.10
2018-08-12T19:35:52.372Z,20.05
2018-08-12T19:38:20.741Z,20.04
2018-08-12T19:40:48.997Z,19.93
2018-08-12T19:43:18.356Z,19.92
2018-08-12T19:45:47.626Z,19.90
2018-08-12T19:48:15.934Z,19.89
2018-08-12T19:50:45.253Z,19.92
2018-08-12T19:53:13.505Z,19.87
2018-08-12T19:55:41.876Z,19.79
2018-08-12T19:58:10.166Z,19.80
2018-08-12T20:00:38.543Z,19.79
2018-08-12T20:03:06.893Z,19.76
2018-08-12T20:05:35.178Z,19.84
2018-08-12T20:08:04.093Z,19.65
2018-08-12T20:10:32.717Z,19.74
2018-08-12T20:13:01.010Z,19.75
2018-08-12T20:15:29.318Z,19.80
2018-08-12T20:17:58.798Z,19.82
2018-08-12T20:20:27.113Z,19.79
2018-08-12T20:22:55.435Z,19.71
2018-08-12T20:25:23.758Z,19.76
2018-08-12T20:27:52.069Z,19.87
2018-08-12T20:30:20.317Z,19.89
2018-08-12T20:32:48.717Z,19.91
2018-08-12T20:35:17.076Z,19.99
2018-08-12T20:37:45.394Z,20.03
2018-08-12T20:40:13.696Z,19.82
2018-08-12T20:42:41.989Z,19.93
2018-08-12T20:45:10.289Z,19.92
2018-08-12T20:47:38.613Z,19.86
2018-08-12T20:50:07.678Z,19.86
2018-08-12T20:52:36.101Z,19.90
2018-08-12T20:55:04.712Z,19.88
2018-08-12T20:57:33.973Z,19.90
2018-08-12T21:00:02.287Z,19.95
2018-08-12T21:02:30.568Z,19.93
2018-08-12T21:04:58.833Z,19.96
2018-08-12T21:07:27.124Z,19.92
2018-08-12T21:09:55.423Z,19.83
2018-08-12T21:12:23.705Z,19.87
2018-08-12T21:14:51.970Z,19.86
2018-08-12T21:17:20.269Z,19.91
2018-08-12T21:19:48.538Z,19.95
2018-08-12T21:22:16.863Z,19.98
2018-08-12T21:24:45.253Z,19.94
2018-08-12T21:27:13.736Z,19.93
2018-08-12T21:29:42.125Z,19.93
2018-08-12T21:32:10.381Z,19.96
2018-08-12T21:34:38.673Z,19.93
2018-08-12T21:37:06.952Z,19.95
2018-08-12T21:39:35.329Z,19.98
2018-08-12T21:42:03.597Z,20.00
2018-08-12T21:44:31.898Z,19.97
2018-08-12T21:47:00.185Z,19.92
2018-08-12T21:49:28.488Z,19.88
2018-08-12T21:51:56.777Z,19.88
2018-08-12T21:54:25.071Z,19.84
2018-08-12T21:56:53.335Z,19.86
2018-08-12T21:59:21.630Z,19.86
2018-08-12T22:01:49.904Z,19.84
2018-08-12T22:04:18.185Z,19.80
2018-08-12T22:06:46.437Z,19.73
2018-08-12T22:09:15.753Z,19.76
2018-08-12T22:11:44.022Z,19.67
2018-08-12T22:14:12.319Z,19.68
2018-08-12T22:16:40.861Z,19.61
2018-08-12T22:19:09.172Z,19.65
2018-08-12T22:21:37.493Z,19.62
2018-08-12T22:24:05.804Z,19.61
2018-08-12T22:26:34.105Z,19.52
2018-08-12T22:29:02.390Z,19.52
2018-08-12T22:31:30.665Z,19.41
2018-08-12T22:33:58.930Z,19.47
2018-08-12T22:36:27.244Z,19.41
2018-08-12T22:38:55.533Z,19.42
2018-08-12T22:41:24.909Z,19.42
2018-08-12T22:43:53.180Z,19.37
2018-08-12T22:46:22.205Z,19.61
2018-08-12T22:48:50.468Z,19.32
2018-08-12T22:51:18.777Z,19.30
2018-08-12T22:53:47.096Z,19.23
2018-08-12T22:56:15.371Z,19.19
2018-08-12T22:58:43.683Z,19.15
2018-08-12T23:01:12.031Z,19.16
2018-08-12T23:03:40.345Z,19.15
2018-08-12T23:06:08.697Z,19.08
2018-08-12T23:08:36.960Z,19.02
2018-08-12T23:11:05.265Z,19.05
2018-08-12T23:13:34.618Z,19.03
2018-08-12T23:16:15.308Z,18.98
2018-08-12T23:18:50.437Z,18.93
2018-08-12T23:21:19.437Z,19.01
2018-08-12T23:23:49.837Z,19.07
2018-08-12T23:26:19.371Z,19.01
2018-08-12T23:28:47.768Z,18.90
2018-08-12T23:31:16.041Z,18.92
2018-08-12T23:33:44.332Z,18.96
2018-08-12T23:36:13.710Z,18.94
2018-08-12T23:38:42.037Z,18.88
2018-08-12T23:41:12.088Z,18.92
2018-08-12T23:43:40.377Z,18.87
2018-08-12T23:46:09.664Z,18.86
2018-08-12T23:48:38.033Z,18.84
2018-08-12T23:51:06.377Z,18.80
2018-08-12T23:53:34.733Z,18.75
2018-08-12T23:56:03.018Z,18.70
2018-08-12T23:58:31.297Z,18.78
